createdAt,value
2022-10-22T00:00:18.098Z,10.30
2022-10-22T00:02:45.337Z,14.88
2022-10-22T00:05:12.434Z,10.13
2022-10-22T00:07:39.942Z,15.00
2022-10-22T00:10:08.187Z,10.75
2022-10-22T00:12:35.839Z,17.05
2022-10-22T00:15:03.940Z,12.70
2022-10-22T00:17:30.842Z,12.52
2022-10-22T00:19:58.075Z,10.73
2022-10-22T00:22:24.878Z,15.60
2022-10-22T00:24:51.770Z,13.88
2022-10-22T00:27:18.774Z,12.63
2022-10-22T00:29:45.662Z,14.27
2022-10-22T00:32:12.941Z,12.70
2022-10-22T00:34:39.886Z,10.93
2022-10-22T00:37:07.123Z,11.63
2022-10-22T00:39:33.949Z,10.45
2022-10-22T00:42:00.975Z,12.05
2022-10-22T00:45:06.015Z,16.77
2022-10-22T00:47:36.863Z,10.18
2022-10-22T00:50:12.475Z,10.00
2022-10-22T00:52:40.472Z,11.95
2022-10-22T00:55:08.374Z,11.52
2022-10-22T00:57:35.832Z,11.88
2022-10-22T01:00:04.341Z,10.27
2022-10-22T01:02:31.555Z,12.88
2022-10-22T01:04:58.384Z,13.27
2022-10-22T01:07:26.769Z,12.57
2022-10-22T01:10:09.314Z,11.73
2022-10-22T01:12:50.070Z,9.70
2022-10-22T01:16:01.474Z,10.00
2022-10-22T01:18:39.563Z,13.25
2022-10-22T01:21:37.169Z,10.77
2022-10-22T01:24:28.722Z,10.52
2022-10-22T01:27:07.773Z,12.57
2022-10-22T01:29:44.143Z,11.23
2022-10-22T01:32:23.364Z,12.43
2022-10-22T01:34:57.900Z,9.35
2022-10-22T01:37:26.680Z,10.63
2022-10-22T01:39:53.630Z,11.02
2022-10-22T01:42:24.173Z,12.38
2022-10-22T01:44:50.997Z,10.60
2022-10-22T01:47:41.575Z,9.90
2022-10-22T01:50:25.707Z,15.13
2022-10-22T01:53:21.973Z,10.33
2022-10-22T01:56:26.704Z,12.13
2022-10-22T01:59:22.706Z,10.90
2022-10-22T02:01:56.569Z,10.68
2022-10-22T02:04:45.791Z,11.52
2022-10-22T02:07:16.333Z,14.00
2022-10-22T02:09:43.891Z,11.23
2022-10-22T02:12:11.061Z,10.02
2022-10-22T02:14:41.274Z,12.77
2022-10-22T02:17:11.065Z,9.77
2022-10-22T02:19:58.737Z,8.85
2022-10-22T02:22:26.331Z,12.60
2022-10-22T02:24:53.623Z,12.88
2022-10-22T02:27:31.187Z,11.60
2022-10-22T02:30:09.720Z,8.40
2022-10-22T02:33:04.897Z,13.07
2022-10-22T02:35:32.232Z,11.57
2022-10-22T02:37:59.937Z,8.75
2022-10-22T02:40:27.471Z,12.40
2022-10-22T02:42:54.327Z,15.48
2022-10-22T02:45:21.289Z,12.10
2022-10-22T02:47:48.431Z,10.02
2022-10-22T02:50:15.428Z,12.93
2022-10-22T02:52:42.763Z,10.48
2022-10-22T02:55:09.924Z,8.52
2022-10-22T02:57:37.372Z,7.30
2022-10-22T03:00:06.435Z,9.93
2022-10-22T03:02:33.651Z,13.38
2022-10-22T03:05:01.026Z,11.10
2022-10-22T03:07:31.019Z,9.57
2022-10-22T03:09:58.058Z,11.18
2022-10-22T03:12:24.972Z,10.07
2022-10-22T03:14:51.732Z,10.30
2022-10-22T03:17:18.897Z,14.63
2022-10-22T03:19:45.604Z,12.57
2022-10-22T03:22:25.668Z,17.60
2022-10-22T03:24:57.901Z,18.42
2022-10-22T03:27:25.178Z,16.38
2022-10-22T03:29:52.942Z,16.55
2022-10-22T03:32:20.094Z,11.88
2022-10-22T03:34:47.254Z,12.25
2022-10-22T03:37:14.530Z,16.13
2022-10-22T03:39:44.316Z,14.57
2022-10-22T03:42:13.532Z,14.68
2022-10-22T03:44:40.811Z,14.55
2022-10-22T03:47:08.479Z,11.02
2022-10-22T03:49:35.529Z,14.50
2022-10-22T03:52:09.952Z,13.00
2022-10-22T03:57:24.083Z,13.63
2022-10-22T03:59:51.673Z,15.77
2022-10-22T04:02:19.252Z,17.75
2022-10-22T04:04:46.452Z,15.85
2022-10-22T04:07:13.626Z,16.67
2022-10-22T04:09:40.493Z,16.80
2022-10-22T04:12:08.606Z,15.10
2022-10-22T04:14:35.843Z,10.98
2022-10-22T04:17:02.945Z,15.13
2022-10-22T04:19:30.296Z,15.38
2022-10-22T04:22:01.138Z,11.48
2022-10-22T04:24:28.172Z,14.68
2022-10-22T04:26:55.990Z,11.02
2022-10-22T04:29:23.751Z,12.38
2022-10-22T04:31:51.029Z,15.00
2022-10-22T04:34:17.986Z,12.65
2022-10-22T04:36:45.096Z,14.93
2022-10-22T04:39:12.204Z,11.70
2022-10-22T04:41:39.870Z,8.30
2022-10-22T04:44:12.245Z,9.18
2022-10-22T04:46:42.997Z,8.95
2022-10-22T04:49:10.011Z,8.93
2022-10-22T04:51:37.404Z,9.55
2022-10-22T04:54:05.024Z,5.95
2022-10-22T04:56:32.777Z,9.27
2022-10-22T04:59:05.202Z,4.75
2022-10-22T05:01:42.866Z,7.55
2022-10-22T05:04:16.424Z,5.75
2022-10-22T05:06:43.569Z,6.95
2022-10-22T05:09:18.559Z,5.30
2022-10-22T05:11:48.979Z,6.60
2022-10-22T05:14:21.783Z,3.72
2022-10-22T05:16:49.563Z,3.92
2022-10-22T05:19:19.463Z,4.03
2022-10-22T05:21:49.366Z,4.88
2022-10-22T05:24:16.172Z,2.95
2022-10-22T05:26:43.340Z,3.47
2022-10-22T05:29:10.200Z,6.45
2022-10-22T05:31:37.336Z,4.43
2022-10-22T05:34:04.351Z,3.88
2022-10-22T05:36:31.107Z,2.65
2022-10-22T05:38:58.275Z,2.00
2022-10-22T05:41:27.639Z,2.95
2022-10-22T05:44:00.487Z,2.13
2022-10-22T05:46:29.899Z,6.57
2022-10-22T05:49:02.973Z,3.30
2022-10-22T05:51:31.843Z,5.75
2022-10-22T05:54:01.375Z,5.18
2022-10-22T05:56:29.980Z,7.32
2022-10-22T05:58:57.280Z,5.47
2022-10-22T06:01:29.717Z,10.90
2022-10-22T06:03:59.183Z,4.72
2022-10-22T06:06:35.435Z,3.50
2022-10-22T06:09:10.545Z,4.93
2022-10-22T06:11:37.790Z,6.20
2022-10-22T06:14:04.709Z,3.90
2022-10-22T06:16:32.509Z,5.45
2022-10-22T06:19:02.228Z,3.08
2022-10-22T06:21:30.718Z,5.90
2022-10-22T06:23:58.751Z,4.75
2022-10-22T06:26:25.989Z,6.25
2022-10-22T06:28:53.118Z,5.60
2022-10-22T06:31:20.361Z,3.85
2022-10-22T06:33:47.817Z,5.05
2022-10-22T06:36:17.519Z,5.82
2022-10-22T06:38:44.779Z,13.20
2022-10-22T06:41:16.556Z,9.15
2022-10-22T06:43:47.275Z,12.05
2022-10-22T06:46:19.165Z,5.65
2022-10-22T06:48:59.603Z,4.07
2022-10-22T06:51:27.433Z,3.35
2022-10-22T06:53:55.755Z,3.67
2022-10-22T06:56:23.667Z,4.35
2022-10-22T06:58:52.252Z,6.75
2022-10-22T07:01:24.422Z,4.28
2022-10-22T07:03:52.178Z,3.58
2022-10-22T07:06:20.003Z,3.65
2022-10-22T07:08:47.201Z,5.40
2022-10-22T07:11:25.760Z,3.28
2022-10-22T07:13:58.158Z,7.07
2022-10-22T07:16:29.607Z,4.93
2022-10-22T07:19:00.376Z,12.20
2022-10-22T07:21:27.366Z,16.08
2022-10-22T07:23:54.410Z,10.15
2022-10-22T07:26:21.444Z,8.75
2022-10-22T07:28:48.479Z,6.70
2022-10-22T07:31:16.199Z,6.65
2022-10-22T07:33:42.968Z,5.65
2022-10-22T07:36:17.975Z,5.18
2022-10-22T07:38:50.038Z,5.57
2022-10-22T07:41:17.529Z,3.00
2022-10-22T07:43:44.955Z,9.45
2022-10-22T07:46:12.138Z,4.00
2022-10-22T07:48:39.700Z,4.75
2022-10-22T07:51:06.803Z,3.38
2022-10-22T07:53:34.153Z,2.67
2022-10-22T07:56:00.931Z,5.35
2022-10-22T07:58:27.723Z,10.20
2022-10-22T08:00:58.708Z,5.88
2022-10-22T08:03:25.646Z,7.25
2022-10-22T08:05:53.117Z,6.63
2022-10-22T08:08:20.554Z,7.22
2022-10-22T08:10:48.904Z,5.32
2022-10-22T08:13:17.153Z,9.50
2022-10-22T08:18:11.713Z,5.57
2022-10-22T08:20:38.456Z,8.80
2022-10-22T08:23:05.503Z,8.00
2022-10-22T08:25:32.715Z,7.95
2022-10-22T08:27:59.609Z,6.97
2022-10-22T08:30:28.016Z,14.27
2022-10-22T08:32:54.938Z,11.30
2022-10-22T08:35:22.091Z,10.02
2022-10-22T08:37:48.915Z,6.70
2022-10-22T08:40:26.725Z,11.15
2022-10-22T08:43:24.395Z,4.57
2022-10-22T08:46:17.665Z,4.75
2022-10-22T08:48:55.558Z,8.48
2022-10-22T08:51:25.304Z,6.82
2022-10-22T08:54:10.856Z,5.80
2022-10-22T08:56:38.498Z,5.80
2022-10-22T08:59:24.968Z,7.07
2022-10-22T09:01:53.732Z,9.85
2022-10-22T09:04:27.110Z,5.05
2022-10-22T09:06:55.824Z,8.35
2022-10-22T09:09:24.684Z,4.55
2022-10-22T09:11:52.540Z,7.45
2022-10-22T09:14:21.893Z,4.70
2022-10-22T09:17:34.117Z,7.63
2022-10-22T09:20:16.109Z,5.70
2022-10-22T09:23:20.655Z,7.60
2022-10-22T09:25:49.640Z,9.60
2022-10-22T09:28:16.448Z,5.85
2022-10-22T09:30:43.663Z,6.55
2022-10-22T09:33:18.238Z,6.75
2022-10-22T09:36:05.846Z,15.38
2022-10-22T09:38:35.109Z,7.00
2022-10-22T09:41:04.237Z,9.07
2022-10-22T09:43:31.817Z,8.23
2022-10-22T09:46:01.270Z,5.20
2022-10-22T09:48:31.581Z,7.70
2022-10-22T09:51:15.719Z,6.10
2022-10-22T09:53:44.710Z,9.00
2022-10-22T09:56:21.876Z,4.38
2022-10-22T09:58:52.142Z,7.00
2022-10-22T10:01:24.400Z,4.75
2022-10-22T10:03:51.135Z,3.88
2022-10-22T10:06:20.429Z,7.07
2022-10-22T10:08:47.802Z,5.72
2022-10-22T10:11:29.579Z,11.50
2022-10-22T10:14:12.880Z,7.32
2022-10-22T10:16:50.140Z,7.30
2022-10-22T10:19:35.595Z,6.15
2022-10-22T10:22:30.850Z,5.82
2022-10-22T10:25:13.487Z,6.18
2022-10-22T10:27:45.905Z,7.32
2022-10-22T10:30:17.929Z,5.35
2022-10-22T10:33:26.621Z,4.65
2022-10-22T10:36:04.781Z,6.10
2022-10-22T10:39:04.009Z,6.20
2022-10-22T10:41:42.996Z,10.57
2022-10-22T10:44:43.205Z,8.43
2022-10-22T10:48:11.421Z,11.70
2022-10-22T10:50:59.110Z,7.22
2022-10-22T10:54:13.907Z,8.52
2022-10-22T10:56:46.023Z,8.97
2022-10-22T10:59:54.984Z,6.85
2022-10-22T11:02:42.527Z,7.03
2022-10-22T11:05:39.611Z,5.80
2022-10-22T11:08:19.978Z,5.75
2022-10-22T11:10:49.370Z,5.75
2022-10-22T11:13:46.235Z,5.93
2022-10-22T11:16:54.527Z,6.45
2022-10-22T11:19:50.306Z,3.03
2022-10-22T11:22:38.214Z,3.30
2022-10-22T11:25:16.275Z,5.32
2022-10-22T11:27:49.392Z,6.72
2022-10-22T11:30:21.801Z,8.18
2022-10-22T11:33:00.136Z,8.43
2022-10-22T11:35:40.042Z,7.05
2022-10-22T11:38:09.874Z,5.38
2022-10-22T11:40:38.772Z,6.47
2022-10-22T11:43:08.309Z,5.75
2022-10-22T11:45:41.012Z,6.80
2022-10-22T11:48:17.019Z,7.78
2022-10-22T11:50:56.819Z,6.90
2022-10-22T11:53:30.821Z,5.00
2022-10-22T11:56:00.311Z,9.63
2022-10-22T11:58:45.196Z,6.68
2022-10-22T12:01:42.285Z,2.85
2022-10-22T12:04:16.521Z,4.22
2022-10-22T12:09:23.928Z,7.65
2022-10-22T12:11:50.977Z,5.80
2022-10-22T12:14:29.829Z,4.85
2022-10-22T12:17:02.658Z,6.22
2022-10-22T12:19:37.342Z,6.18
2022-10-22T12:22:26.804Z,3.22
2022-10-22T12:24:55.831Z,7.57
2022-10-22T12:27:28.037Z,7.00
2022-10-22T12:29:56.655Z,4.20
2022-10-22T12:32:24.277Z,6.90
2022-10-22T12:34:52.621Z,5.40
2022-10-22T12:37:19.805Z,4.90
2022-10-22T12:39:47.448Z,5.68
2022-10-22T12:42:16.511Z,6.78
2022-10-22T12:44:46.406Z,9.23
2022-10-22T12:47:17.725Z,4.10
2022-10-22T12:49:49.707Z,5.82
2022-10-22T12:52:20.844Z,5.43
2022-10-22T12:54:52.577Z,5.47
2022-10-22T12:57:20.635Z,6.00
2022-10-22T12:59:49.940Z,5.53
2022-10-22T13:02:24.118Z,6.47
2022-10-22T13:05:39.030Z,8.65
2022-10-22T13:08:18.363Z,3.85
2022-10-22T13:10:53.318Z,2.20
2022-10-22T13:13:34.917Z,9.20
2022-10-22T13:16:28.075Z,9.70
2022-10-22T13:18:55.056Z,3.13
2022-10-22T13:21:38.160Z,5.45
2022-10-22T13:24:23.872Z,9.85
2022-10-22T13:26:51.677Z,6.55
2022-10-22T13:29:22.016Z,3.55
2022-10-22T13:31:51.435Z,4.45
2022-10-22T13:34:20.790Z,2.92
2022-10-22T13:36:48.361Z,4.03
2022-10-22T13:39:20.362Z,4.35
2022-10-22T13:41:48.150Z,5.28
2022-10-22T13:44:14.949Z,6.43
2022-10-22T13:46:42.911Z,4.22
2022-10-22T13:49:18.140Z,4.03
2022-10-22T13:51:45.154Z,3.30
2022-10-22T13:54:16.303Z,4.63
2022-10-22T13:56:43.077Z,4.93
2022-10-22T13:59:10.454Z,3.85
2022-10-22T14:01:37.914Z,5.30
2022-10-22T14:04:06.525Z,4.53
2022-10-22T14:09:21.505Z,5.75
2022-10-22T14:11:48.231Z,8.55
2022-10-22T14:14:17.458Z,3.67
2022-10-22T14:16:44.570Z,5.57
2022-10-22T14:19:15.967Z,5.18
2022-10-22T14:21:42.714Z,5.28
2022-10-22T14:24:13.009Z,3.90
2022-10-22T14:26:40.366Z,4.10
2022-10-22T14:29:11.345Z,9.73
2022-10-22T14:34:07.369Z,11.40
2022-10-22T14:36:34.069Z,7.65
2022-10-22T14:39:00.838Z,9.68
2022-10-22T14:41:29.206Z,6.03
2022-10-22T14:43:56.285Z,9.48
2022-10-22T14:46:23.031Z,6.40
2022-10-22T14:48:49.805Z,4.00
2022-10-22T14:51:18.541Z,9.90
2022-10-22T14:53:45.594Z,7.28
2022-10-22T14:56:13.801Z,7.93
2022-10-22T14:58:41.081Z,5.78
2022-10-22T15:01:08.936Z,10.68
2022-10-22T15:03:36.053Z,9.93
2022-10-22T15:06:03.013Z,11.00
2022-10-22T15:08:29.799Z,9.07
2022-10-22T15:11:01.849Z,6.00
2022-10-22T15:13:29.648Z,5.05
2022-10-22T15:15:57.579Z,7.93
2022-10-22T15:18:24.933Z,3.97
2022-10-22T15:21:02.772Z,6.78
2022-10-22T15:23:30.041Z,5.38
2022-10-22T15:25:57.324Z,4.68
2022-10-22T15:28:25.083Z,2.95
2022-10-22T15:30:57.006Z,10.27
2022-10-22T15:33:23.843Z,3.58
2022-10-22T15:35:50.589Z,6.55
2022-10-22T15:38:17.769Z,6.63
2022-10-22T15:40:44.755Z,6.15
2022-10-22T15:43:11.846Z,6.68
2022-10-22T15:45:39.242Z,11.52
2022-10-22T15:48:06.576Z,9.25
2022-10-22T15:50:38.185Z,12.40
2022-10-22T15:53:05.915Z,13.27
2022-10-22T15:55:32.785Z,6.55
2022-10-22T15:58:01.934Z,9.48
2022-10-22T16:00:31.014Z,13.40
2022-10-22T16:02:57.833Z,12.70
2022-10-22T16:05:24.590Z,5.63
2022-10-22T16:07:53.331Z,5.50
2022-10-22T16:10:20.241Z,10.07
2022-10-22T16:12:47.002Z,12.30
2022-10-22T16:15:13.885Z,9.95
2022-10-22T16:17:40.700Z,8.00
2022-10-22T16:20:08.248Z,8.15
2022-10-22T16:22:34.958Z,4.57
2022-10-22T16:25:02.064Z,8.43
2022-10-22T16:27:28.912Z,7.70
2022-10-22T16:29:55.809Z,10.68
2022-10-22T16:32:23.259Z,14.70
2022-10-22T16:34:50.079Z,11.77
2022-10-22T16:37:16.928Z,10.63
2022-10-22T16:39:43.727Z,13.07
2022-10-22T16:42:10.485Z,11.65
2022-10-22T16:44:37.730Z,8.82
2022-10-22T16:47:04.930Z,8.77
2022-10-22T16:49:31.714Z,14.05
2022-10-22T16:51:58.683Z,4.75
2022-10-22T16:54:25.762Z,10.13
2022-10-22T16:56:52.733Z,6.63
2022-10-22T16:59:19.667Z,8.40
2022-10-22T17:01:46.421Z,10.68
2022-10-22T17:04:13.725Z,9.38
2022-10-22T17:06:41.016Z,9.52
2022-10-22T17:09:07.880Z,8.70
2022-10-22T17:11:37.151Z,12.65
2022-10-22T17:14:06.109Z,18.23
2022-10-22T17:16:33.182Z,18.15
2022-10-22T17:19:00.271Z,21.83
2022-10-22T17:21:27.175Z,19.55
2022-10-22T17:23:56.284Z,16.55
2022-10-22T17:26:27.115Z,21.08
2022-10-22T17:28:54.735Z,27.00
2022-10-22T17:31:24.157Z,20.83
2022-10-22T17:33:52.737Z,23.30
2022-10-22T17:36:20.698Z,26.10
2022-10-22T17:38:50.438Z,21.48
2022-10-22T17:41:20.484Z,21.98
2022-10-22T17:43:47.706Z,21.02
2022-10-22T17:46:22.391Z,22.48
2022-10-22T17:48:56.530Z,22.13
2022-10-22T17:51:25.660Z,20.00
2022-10-22T17:53:52.985Z,21.17
2022-10-22T17:56:22.177Z,29.25
2022-10-22T17:58:49.523Z,21.73
2022-10-22T18:01:27.151Z,22.23
2022-10-22T18:03:55.410Z,25.67
2022-10-22T18:06:22.207Z,19.38
2022-10-22T18:08:49.114Z,19.00
2022-10-22T18:11:21.380Z,18.38
2022-10-22T18:13:52.750Z,17.77
2022-10-22T18:16:20.073Z,18.30
2022-10-22T18:18:51.001Z,16.65
2022-10-22T18:21:18.276Z,13.77
2022-10-22T18:23:46.270Z,16.30
2022-10-22T18:26:13.707Z,12.50
2022-10-22T18:28:40.905Z,13.07
2022-10-22T18:31:09.562Z,13.75
2022-10-22T18:33:37.942Z,12.40
2022-10-22T18:36:10.355Z,13.48
2022-10-22T18:38:41.041Z,11.93
2022-10-22T18:41:10.204Z,9.38
2022-10-22T18:43:37.192Z,9.95
2022-10-22T18:46:07.306Z,10.32
2022-10-22T18:48:35.569Z,9.10
2022-10-22T18:51:08.648Z,11.20
2022-10-22T18:53:37.393Z,10.48
2022-10-22T18:56:09.543Z,9.02
2022-10-22T18:58:45.457Z,10.57
2022-10-22T19:01:21.017Z,15.60
2022-10-22T19:03:48.748Z,10.93
2022-10-22T19:06:16.811Z,10.77
2022-10-22T19:08:45.846Z,12.27
2022-10-22T19:11:16.464Z,8.43
2022-10-22T19:13:43.285Z,10.70
2022-10-22T19:16:13.259Z,13.18
2022-10-22T19:18:40.378Z,13.48
2022-10-22T19:21:07.332Z,8.40
2022-10-22T19:23:34.523Z,9.50
2022-10-22T19:26:06.490Z,8.82
2022-10-22T19:28:33.816Z,10.10
2022-10-22T19:31:00.637Z,13.23
2022-10-22T19:33:28.235Z,7.22
2022-10-22T19:35:55.202Z,9.07
2022-10-22T19:38:23.750Z,10.13
2022-10-22T19:40:51.975Z,13.57
2022-10-22T19:43:19.082Z,23.88
2022-10-22T19:45:45.951Z,42.50
2022-10-22T19:48:12.679Z,19.73
2022-10-22T19:50:39.695Z,17.55
2022-10-22T19:53:06.462Z,14.45
2022-10-22T19:55:33.280Z,16.83
2022-10-22T19:58:00.046Z,19.50
2022-10-22T20:00:28.561Z,16.33
2022-10-22T20:02:55.326Z,14.10
2022-10-22T20:07:50.023Z,12.88
2022-10-22T20:10:16.748Z,14.05
2022-10-22T20:12:43.555Z,14.05
2022-10-22T20:15:10.383Z,10.30
2022-10-22T20:17:37.207Z,22.73
2022-10-22T20:20:04.358Z,15.98
2022-10-22T20:22:31.280Z,46.22
2022-10-22T20:24:58.216Z,27.17
2022-10-22T20:27:25.085Z,13.70
2022-10-22T20:29:51.986Z,12.52
2022-10-22T20:32:18.814Z,13.27
2022-10-22T20:34:45.686Z,17.45
2022-10-22T20:37:12.546Z,11.90
2022-10-22T20:39:39.349Z,9.63
2022-10-22T20:42:06.117Z,11.80
2022-10-22T20:44:32.931Z,12.70
2022-10-22T20:46:59.652Z,5.13
2022-10-22T20:49:27.249Z,12.40
2022-10-22T20:51:54.059Z,16.70
2022-10-22T20:54:21.059Z,7.30
2022-10-22T20:56:48.242Z,9.15
2022-10-22T20:59:15.953Z,9.07
2022-10-22T21:01:53.235Z,10.77
2022-10-22T21:04:21.749Z,9.77
2022-10-22T21:06:50.351Z,10.65
2022-10-22T21:09:17.528Z,6.97
2022-10-22T21:11:44.834Z,9.02
2022-10-22T21:14:13.818Z,10.48
2022-10-22T21:16:42.199Z,9.88
2022-10-22T21:19:09.279Z,8.88
2022-10-22T21:21:36.207Z,12.02
2022-10-22T21:24:03.093Z,8.10
2022-10-22T21:26:29.855Z,11.82
2022-10-22T21:28:56.862Z,8.90
2022-10-22T21:31:26.352Z,12.77
2022-10-22T21:33:53.812Z,6.72
2022-10-22T21:36:22.981Z,6.00
2022-10-22T21:38:52.003Z,9.48
2022-10-22T21:41:20.255Z,12.90
2022-10-22T21:43:47.343Z,5.60
2022-10-22T21:46:19.345Z,11.15
2022-10-22T21:48:47.358Z,6.50
2022-10-22T21:51:16.921Z,8.85
2022-10-22T21:53:44.330Z,8.05
2022-10-22T21:56:16.954Z,6.75
2022-10-22T21:58:43.901Z,4.60
2022-10-22T22:01:11.229Z,8.80
2022-10-22T22:03:38.680Z,8.40
2022-10-22T22:06:07.164Z,8.75
2022-10-22T22:08:34.392Z,13.77
2022-10-22T22:11:06.979Z,15.27
2022-10-22T22:13:34.075Z,5.53
2022-10-22T22:16:08.745Z,6.57
2022-10-22T22:18:36.482Z,6.50
2022-10-22T22:21:05.521Z,9.98
2022-10-22T22:23:32.916Z,8.07
2022-10-22T22:26:00.649Z,6.85
2022-10-22T22:28:29.224Z,5.28
2022-10-22T22:30:56.681Z,7.03
2022-10-22T22:33:23.514Z,8.95
2022-10-22T22:35:50.531Z,9.63
2022-10-22T22:38:17.279Z,8.20
2022-10-22T22:40:44.307Z,16.27
2022-10-22T22:43:11.709Z,12.05
2022-10-22T22:45:40.978Z,9.25
2022-10-22T22:48:08.011Z,7.53
2022-10-22T22:50:36.668Z,18.90
2022-10-22T22:53:03.476Z,6.78
2022-10-22T22:55:32.126Z,11.05
2022-10-22T22:57:59.160Z,9.95
2022-10-22T23:00:26.240Z,12.65
2022-10-22T23:02:56.188Z,13.57
2022-10-22T23:05:23.199Z,9.13
2022-10-22T23:07:50.051Z,10.95
2022-10-22T23:10:17.243Z,12.10
2022-10-22T23:12:44.572Z,8.13
2022-10-22T23:15:11.889Z,13.18
2022-10-22T23:17:39.889Z,6.70
2022-10-22T23:20:07.870Z,12.68
2022-10-22T23:22:34.632Z,4.38
2022-10-22T23:25:01.605Z,7.95
2022-10-22T23:27:28.379Z,11.48
2022-10-22T23:29:55.184Z,7.72
2022-10-22T23:32:21.862Z,10.55
2022-10-22T23:34:48.561Z,14.63
2022-10-22T23:37:15.314Z,13.63
2022-10-22T23:39:42.286Z,6.80
2022-10-22T23:42:09.105Z,9.40
2022-10-22T23:44:36.075Z,9.00
2022-10-22T23:47:02.844Z,11.30
2022-10-22T23:49:29.774Z,7.65
2022-10-22T23:51:56.478Z,16.95
2022-10-22T23:54:23.323Z,9.93
2022-10-22T23:56:50.020Z,9.55
2022-10-22T23:59:16.801Z,14.85
